createdAt,value
2023-05-03T00:01:44.004Z,14.20
2023-05-03T00:04:11.019Z,14.20
2023-05-03T00:06:37.933Z,14.20
2023-05-03T00:09:04.806Z,14.20
2023-05-03T00:11:31.667Z,14.20
2023-05-03T00:13:58.515Z,14.30
2023-05-03T00:16:25.321Z,14.20
2023-05-03T00:18:52.183Z,14.20
2023-05-03T00:21:19.045Z,14.20
2023-05-03T00:23:45.877Z,14.20
2023-05-03T00:26:12.670Z,14.30
2023-05-03T00:28:39.515Z,14.40
2023-05-03T00:31:11.302Z,14.30
2023-05-03T00:33:38.876Z,14.30
2023-05-03T00:36:10.243Z,14.30
2023-05-03T00:38:37.417Z,14.30
2023-05-03T00:41:05.096Z,14.30
2023-05-03T00:43:32.368Z,14.30
2023-05-03T00:46:08.707Z,14.20
2023-05-03T00:48:42.551Z,14.20
2023-05-03T00:51:12.472Z,14.10
2023-05-03T00:53:39.297Z,14.20
2023-05-03T00:56:07.058Z,14.20
2023-05-03T00:58:36.258Z,14.20
2023-05-03T01:01:03.470Z,14.20
2023-05-03T01:03:30.607Z,14.20
2023-05-03T01:06:23.860Z,14.20
2023-05-03T01:09:28.982Z,14.10
2023-05-03T01:12:08.657Z,14.00
2023-05-03T01:14:50.438Z,14.00
2023-05-03T01:17:25.418Z,13.90
2023-05-03T01:19:57.997Z,14.00
2023-05-03T01:22:50.601Z,13.90
2023-05-03T01:25:17.515Z,13.80
2023-05-03T01:27:44.354Z,13.90
2023-05-03T01:30:12.620Z,13.80
2023-05-03T01:32:48.387Z,13.80
2023-05-03T01:35:30.394Z,13.90
2023-05-03T01:37:58.166Z,13.80
2023-05-03T01:40:28.092Z,13.80
2023-05-03T01:42:56.728Z,13.80
2023-05-03T01:45:23.954Z,13.80
2023-05-03T01:47:50.813Z,13.70
2023-05-03T01:50:17.700Z,13.70
2023-05-03T01:52:45.298Z,13.80
2023-05-03T01:55:12.154Z,13.70
2023-05-03T01:57:38.926Z,13.70
2023-05-03T02:00:07.110Z,13.70
2023-05-03T02:02:33.998Z,13.70
2023-05-03T02:05:01.077Z,13.60
2023-05-03T02:07:28.122Z,13.70
2023-05-03T02:09:54.988Z,13.60
2023-05-03T02:12:21.927Z,13.60
2023-05-03T02:14:48.756Z,13.50
2023-05-03T02:17:19.018Z,13.60
2023-05-03T02:19:45.831Z,13.50
2023-05-03T02:22:12.724Z,13.50
2023-05-03T02:24:40.107Z,13.40
2023-05-03T02:27:06.919Z,13.40
2023-05-03T02:29:34.152Z,13.40
2023-05-03T02:32:01.060Z,13.30
2023-05-03T02:34:28.050Z,13.30
2023-05-03T02:36:54.867Z,13.30
2023-05-03T02:39:21.714Z,13.30
2023-05-03T02:41:48.545Z,13.20
2023-05-03T02:44:15.441Z,13.20
2023-05-03T02:46:42.525Z,13.10
2023-05-03T02:49:09.902Z,13.20
2023-05-03T02:51:36.742Z,13.20
2023-05-03T02:54:03.643Z,13.20
2023-05-03T02:56:30.453Z,13.20
2023-05-03T02:58:57.272Z,13.20
2023-05-03T03:01:24.078Z,13.20
2023-05-03T03:03:50.965Z,13.20
2023-05-03T03:06:18.050Z,13.20
2023-05-03T03:08:44.867Z,13.20
2023-05-03T03:11:11.669Z,13.20
2023-05-03T03:13:39.908Z,13.10
2023-05-03T03:16:10.337Z,13.20
2023-05-03T03:18:37.610Z,13.30
2023-05-03T03:21:04.908Z,13.30
2023-05-03T03:23:31.784Z,13.30
2023-05-03T03:25:58.658Z,13.40
2023-05-03T03:28:25.739Z,13.40
2023-05-03T03:30:52.650Z,13.40
2023-05-03T03:33:22.128Z,13.50
2023-05-03T03:35:50.563Z,13.40
2023-05-03T03:38:17.352Z,13.50
2023-05-03T03:40:44.402Z,13.50
2023-05-03T03:43:11.385Z,13.60
2023-05-03T03:45:38.191Z,13.70
2023-05-03T03:48:05.375Z,13.70
2023-05-03T03:50:32.258Z,13.90
2023-05-03T03:52:59.049Z,14.00
2023-05-03T03:55:25.820Z,14.20
2023-05-03T03:57:52.675Z,14.50
2023-05-03T04:00:19.917Z,14.80
2023-05-03T04:02:47.287Z,15.10
2023-05-03T04:05:14.574Z,15.10
2023-05-03T04:07:41.348Z,15.10
2023-05-03T04:10:08.827Z,15.20
2023-05-03T04:12:35.664Z,15.20
2023-05-03T04:15:02.609Z,15.40
2023-05-03T04:17:29.552Z,15.60
2023-05-03T04:19:56.607Z,16.10
2023-05-03T04:22:23.521Z,16.60
2023-05-03T04:24:50.566Z,17.20
2023-05-03T04:27:18.232Z,17.50
2023-05-03T04:29:45.112Z,17.90
2023-05-03T04:32:14.672Z,18.10
2023-05-03T04:34:42.441Z,18.50
2023-05-03T04:37:09.738Z,18.70
2023-05-03T04:39:36.580Z,18.90
2023-05-03T04:42:04.020Z,19.00
2023-05-03T04:44:30.887Z,19.00
2023-05-03T04:46:57.699Z,19.50
2023-05-03T04:49:24.522Z,20.00
2023-05-03T04:51:51.321Z,20.80
2023-05-03T04:54:18.168Z,20.90
2023-05-03T04:56:45.049Z,21.10
2023-05-03T04:59:12.547Z,21.10
2023-05-03T05:01:39.848Z,21.10
2023-05-03T05:04:06.855Z,21.50
2023-05-03T05:06:33.793Z,21.50
2023-05-03T05:09:00.683Z,21.60
2023-05-03T05:11:27.790Z,21.60
2023-05-03T05:13:54.560Z,21.60
2023-05-03T05:16:22.165Z,21.80
2023-05-03T05:18:49.085Z,21.90
2023-05-03T05:21:16.128Z,22.20
2023-05-03T05:23:42.870Z,22.20
2023-05-03T05:26:10.185Z,22.00
2023-05-03T05:28:36.965Z,22.30
2023-05-03T05:31:03.745Z,22.60
2023-05-03T05:33:30.632Z,23.00
2023-05-03T05:35:57.506Z,23.40
2023-05-03T05:38:24.482Z,23.30
2023-05-03T05:40:51.297Z,23.70
2023-05-03T05:43:18.108Z,24.00
2023-05-03T05:45:44.978Z,24.20
2023-05-03T05:48:11.878Z,24.10
2023-05-03T05:50:38.752Z,24.20
2023-05-03T05:53:05.725Z,24.40
2023-05-03T05:55:32.591Z,23.80
2023-05-03T05:57:59.535Z,23.60
2023-05-03T06:00:26.378Z,23.60
2023-05-03T06:02:53.272Z,23.70
2023-05-03T06:05:20.802Z,24.00
2023-05-03T06:07:48.124Z,24.50
2023-05-03T06:10:15.077Z,24.40
2023-05-03T06:12:41.880Z,23.60
2023-05-03T06:15:09.729Z,24.20
2023-05-03T06:17:36.706Z,24.20
2023-05-03T06:20:05.058Z,24.60
2023-05-03T06:22:32.155Z,24.20
2023-05-03T06:24:59.110Z,24.40
2023-05-03T06:27:26.074Z,24.90
2023-05-03T06:29:52.944Z,25.10
2023-05-03T06:32:19.867Z,24.70
2023-05-03T06:34:46.660Z,24.50
2023-05-03T06:37:14.089Z,23.80
2023-05-03T06:39:40.924Z,24.00
2023-05-03T06:42:07.947Z,24.40
2023-05-03T06:44:34.884Z,24.00
2023-05-03T06:47:01.908Z,24.00
2023-05-03T06:49:28.747Z,24.40
2023-05-03T06:51:55.935Z,24.90
2023-05-03T06:54:22.798Z,25.40
2023-05-03T06:56:49.613Z,25.50
2023-05-03T06:59:16.870Z,24.70
2023-05-03T07:01:43.937Z,24.90
2023-05-03T07:04:10.967Z,24.50
2023-05-03T07:06:52.508Z,24.50
2023-05-03T07:09:35.343Z,24.30
2023-05-03T07:12:08.889Z,23.40
2023-05-03T07:14:35.922Z,23.30
2023-05-03T07:17:02.795Z,22.90
2023-05-03T07:19:30.196Z,22.50
2023-05-03T07:21:57.170Z,22.00
2023-05-03T07:24:26.114Z,22.00
2023-05-03T07:26:53.719Z,22.30
2023-05-03T07:29:21.143Z,22.60
2023-05-03T07:31:48.062Z,22.60
2023-05-03T07:34:14.977Z,22.00
2023-05-03T07:36:41.910Z,21.90
2023-05-03T07:39:08.738Z,22.20
2023-05-03T07:41:35.633Z,22.20
2023-05-03T07:44:02.484Z,22.20
2023-05-03T07:46:34.837Z,22.20
2023-05-03T07:49:05.529Z,22.30
2023-05-03T07:51:36.495Z,22.80
2023-05-03T07:54:04.262Z,23.20
2023-05-03T07:56:31.737Z,23.20
2023-05-03T07:59:08.451Z,23.20
2023-05-03T08:01:36.717Z,23.30
2023-05-03T08:04:04.719Z,23.90
2023-05-03T08:06:32.730Z,24.10
2023-05-03T08:08:59.734Z,23.70
2023-05-03T08:11:28.975Z,23.20
2023-05-03T08:13:56.555Z,23.10
2023-05-03T08:16:23.498Z,22.90
2023-05-03T08:18:50.401Z,23.00
2023-05-03T08:21:17.681Z,22.70
2023-05-03T08:23:45.192Z,22.90
2023-05-03T08:26:14.202Z,23.30
2023-05-03T08:28:41.574Z,23.10
2023-05-03T08:31:08.988Z,23.30
2023-05-03T08:33:36.068Z,23.50
2023-05-03T08:36:03.300Z,23.40
2023-05-03T08:38:30.349Z,22.80
2023-05-03T08:40:59.707Z,22.40
2023-05-03T08:43:28.717Z,22.30
2023-05-03T08:45:55.793Z,22.50
2023-05-03T08:48:23.241Z,22.90
2023-05-03T08:50:51.750Z,22.70
2023-05-03T08:53:18.682Z,22.80
2023-05-03T08:55:45.908Z,22.70
2023-05-03T08:58:13.636Z,22.60
2023-05-03T09:00:44.855Z,22.60
2023-05-03T09:03:12.596Z,22.80
2023-05-03T09:05:41.211Z,22.70
2023-05-03T09:08:10.385Z,22.90
2023-05-03T09:10:39.701Z,22.90
2023-05-03T09:13:07.773Z,22.70
2023-05-03T09:15:35.544Z,22.50
2023-05-03T09:18:13.794Z,22.50
2023-05-03T09:20:41.926Z,22.70
2023-05-03T09:23:09.884Z,22.70
2023-05-03T09:25:51.353Z,22.50
2023-05-03T09:28:20.028Z,22.30
2023-05-03T09:30:48.245Z,22.20
2023-05-03T09:33:22.378Z,22.30
2023-05-03T09:36:03.711Z,22.40
2023-05-03T09:38:33.615Z,22.40
2023-05-03T09:41:01.564Z,22.30
2023-05-03T09:43:28.826Z,22.10
2023-05-03T09:46:13.000Z,22.20
2023-05-03T09:48:41.976Z,22.10
2023-05-03T09:51:09.864Z,22.20
2023-05-03T09:53:38.300Z,22.40
2023-05-03T09:56:12.905Z,22.60
2023-05-03T09:58:41.238Z,22.60
2023-05-03T10:01:10.326Z,22.70
2023-05-03T10:03:45.364Z,22.70
2023-05-03T10:06:25.137Z,22.60
2023-05-03T10:09:05.712Z,22.60
2023-05-03T10:11:36.318Z,22.50
2023-05-03T10:14:05.573Z,22.50
2023-05-03T10:16:38.926Z,22.50
2023-05-03T10:19:14.653Z,22.60
2023-05-03T10:21:59.778Z,22.60
2023-05-03T10:24:26.613Z,22.50
2023-05-03T10:26:55.743Z,22.50
2023-05-03T10:29:35.073Z,22.70
2023-05-03T10:32:03.288Z,22.80
2023-05-03T10:34:34.278Z,22.90
2023-05-03T10:37:10.530Z,23.00
2023-05-03T10:39:37.797Z,22.80
2023-05-03T10:42:09.126Z,22.80
2023-05-03T10:44:40.519Z,22.80
2023-05-03T10:47:18.432Z,22.70
2023-05-03T10:49:46.098Z,22.60
2023-05-03T10:52:40.857Z,22.70
2023-05-03T10:55:13.893Z,23.10
2023-05-03T10:57:42.728Z,23.40
2023-05-03T11:00:14.081Z,23.50
2023-05-03T11:03:03.918Z,23.50
2023-05-03T11:05:31.604Z,23.50
2023-05-03T11:08:21.589Z,23.40
2023-05-03T11:10:59.354Z,23.20
2023-05-03T11:13:26.842Z,23.50
2023-05-03T11:15:55.181Z,23.80
2023-05-03T11:18:22.998Z,23.90
2023-05-03T11:20:50.205Z,23.70
2023-05-03T11:23:16.946Z,23.90
2023-05-03T11:25:43.735Z,24.00
2023-05-03T11:28:10.716Z,24.00
2023-05-03T11:30:37.760Z,24.30
2023-05-03T11:33:04.775Z,24.30
2023-05-03T11:35:33.106Z,24.30
2023-05-03T11:38:00.161Z,24.30
2023-05-03T11:40:27.851Z,24.10
2023-05-03T11:43:01.197Z,24.00
2023-05-03T11:45:38.361Z,24.00
2023-05-03T11:48:05.925Z,23.90
2023-05-03T11:50:55.439Z,24.20
2023-05-03T11:53:23.757Z,24.40
2023-05-03T11:55:54.937Z,24.50
2023-05-03T11:58:26.686Z,24.60
2023-05-03T12:00:55.870Z,24.50
2023-05-03T12:03:30.821Z,24.70
2023-05-03T12:05:59.734Z,25.00
2023-05-03T12:08:34.516Z,25.20
2023-05-03T12:11:06.443Z,25.30
2023-05-03T12:13:39.616Z,25.30
2023-05-03T12:18:58.779Z,25.30
2023-05-03T12:21:54.968Z,24.90
2023-05-03T12:24:28.712Z,24.70
2023-05-03T12:26:57.307Z,24.60
2023-05-03T12:29:24.959Z,24.40
2023-05-03T12:31:52.671Z,24.30
2023-05-03T12:34:33.723Z,24.40
2023-05-03T12:37:04.764Z,24.30
2023-05-03T12:39:33.059Z,24.70
2023-05-03T12:44:34.424Z,25.10
2023-05-03T12:47:02.622Z,25.10
2023-05-03T12:49:30.138Z,25.00
2023-05-03T12:54:33.435Z,24.90
2023-05-03T12:57:08.493Z,25.00
2023-05-03T12:59:42.346Z,25.10
2023-05-03T13:04:57.781Z,25.30
2023-05-03T13:07:32.035Z,25.30
2023-05-03T13:12:30.975Z,25.50
2023-05-03T13:14:58.126Z,25.40
2023-05-03T13:17:25.366Z,25.30
2023-05-03T13:19:53.192Z,25.30
2023-05-03T13:22:20.006Z,25.50
2023-05-03T13:24:47.791Z,25.60
2023-05-03T13:27:16.404Z,25.80
2023-05-03T13:29:43.273Z,25.70
2023-05-03T13:32:10.632Z,25.80
2023-05-03T13:34:37.550Z,25.90
2023-05-03T13:37:04.821Z,25.80
2023-05-03T13:39:32.364Z,25.80
2023-05-03T13:41:59.497Z,25.70
2023-05-03T13:44:26.470Z,25.80
2023-05-03T13:46:53.898Z,25.70
2023-05-03T13:49:20.995Z,25.50
2023-05-03T13:51:48.077Z,25.20
2023-05-03T13:54:15.018Z,24.80
2023-05-03T13:56:42.940Z,24.70
2023-05-03T13:59:12.440Z,24.80
2023-05-03T14:01:40.373Z,24.80
2023-05-03T14:04:07.381Z,24.80
2023-05-03T14:06:34.364Z,24.70
2023-05-03T14:09:02.011Z,24.50
2023-05-03T14:11:31.134Z,24.10
2023-05-03T14:13:58.994Z,24.00
2023-05-03T14:18:57.460Z,23.80
2023-05-03T14:21:24.609Z,23.80
2023-05-03T14:23:51.717Z,23.90
2023-05-03T14:26:20.067Z,23.90
2023-05-03T14:28:47.151Z,23.90
2023-05-03T14:31:14.011Z,23.80
2023-05-03T14:33:40.822Z,23.80
2023-05-03T14:36:10.827Z,23.70
2023-05-03T14:38:37.696Z,23.60
2023-05-03T14:41:04.875Z,23.50
2023-05-03T14:43:32.364Z,23.60
2023-05-03T14:45:59.199Z,23.50
2023-05-03T14:48:26.221Z,23.40
2023-05-03T14:50:53.489Z,23.20
2023-05-03T14:53:21.878Z,23.10
2023-05-03T14:55:48.747Z,23.00
2023-05-03T14:58:16.006Z,23.10
2023-05-03T15:00:43.501Z,23.10
2023-05-03T15:03:11.996Z,23.10
2023-05-03T15:05:49.420Z,23.00
2023-05-03T15:08:19.350Z,22.90
2023-05-03T15:10:47.822Z,22.90
2023-05-03T15:13:16.317Z,22.90
2023-05-03T15:15:44.318Z,22.90
2023-05-03T15:18:11.629Z,22.80
2023-05-03T15:20:39.136Z,22.80
2023-05-03T15:23:06.233Z,22.70
2023-05-03T15:25:33.173Z,22.70
2023-05-03T15:28:03.797Z,22.70
2023-05-03T15:30:32.113Z,22.80
2023-05-03T15:32:59.115Z,22.70
2023-05-03T15:35:26.197Z,22.80
2023-05-03T15:37:53.213Z,22.60
2023-05-03T15:40:23.777Z,22.60
2023-05-03T15:42:52.325Z,22.60
2023-05-03T15:45:19.496Z,22.60
2023-05-03T15:47:46.452Z,22.50
2023-05-03T15:50:13.924Z,22.40
2023-05-03T15:52:42.214Z,22.40
2023-05-03T15:55:09.889Z,22.40
2023-05-03T15:57:37.532Z,22.30
2023-05-03T16:00:09.362Z,22.20
2023-05-03T16:02:36.145Z,22.20
2023-05-03T16:05:03.113Z,22.20
2023-05-03T16:07:30.092Z,22.10
2023-05-03T16:09:57.085Z,22.00
2023-05-03T16:12:24.532Z,21.90
2023-05-03T16:14:51.376Z,21.80
2023-05-03T16:17:18.394Z,21.90
2023-05-03T16:19:45.195Z,21.80
2023-05-03T16:22:12.105Z,21.70
2023-05-03T16:24:39.205Z,21.50
2023-05-03T16:27:06.316Z,21.50
2023-05-03T16:29:34.748Z,21.50
2023-05-03T16:32:01.883Z,21.40
2023-05-03T16:34:28.796Z,21.40
2023-05-03T16:36:55.754Z,21.30
2023-05-03T16:39:22.714Z,21.20
2023-05-03T16:41:49.512Z,21.30
2023-05-03T16:44:18.550Z,21.20
2023-05-03T16:46:46.451Z,21.10
2023-05-03T16:49:13.327Z,21.00
2023-05-03T16:51:41.186Z,20.90
2023-05-03T16:54:08.082Z,20.80
2023-05-03T16:56:34.973Z,20.70
2023-05-03T16:59:03.684Z,20.80
2023-05-03T17:01:30.521Z,20.80
2023-05-03T17:03:57.454Z,20.80
2023-05-03T17:06:24.311Z,20.70
2023-05-03T17:08:51.521Z,20.60
2023-05-03T17:11:18.550Z,20.60
2023-05-03T17:13:45.567Z,20.60
2023-05-03T17:16:15.218Z,20.50
2023-05-03T17:18:42.938Z,20.50
2023-05-03T17:21:11.184Z,20.40
2023-05-03T17:23:39.441Z,20.40
2023-05-03T17:26:08.927Z,20.30
2023-05-03T17:28:36.578Z,20.40
2023-05-03T17:31:08.924Z,20.50
2023-05-03T17:33:36.330Z,20.40
2023-05-03T17:36:05.038Z,20.50
2023-05-03T17:38:34.158Z,20.10
2023-05-03T17:41:08.674Z,20.00
2023-05-03T17:43:36.616Z,19.90
2023-05-03T17:46:12.200Z,19.70
2023-05-03T17:48:40.028Z,19.50
2023-05-03T17:51:09.669Z,19.40
2023-05-03T17:53:36.516Z,19.30
2023-05-03T17:56:03.391Z,19.10
2023-05-03T17:58:30.210Z,18.80
2023-05-03T18:00:57.627Z,18.60
2023-05-03T18:03:25.732Z,18.50
2023-05-03T18:05:53.066Z,18.30
2023-05-03T18:08:19.929Z,18.20
2023-05-03T18:10:47.031Z,18.10
2023-05-03T18:13:13.982Z,17.90
2023-05-03T18:15:41.868Z,17.90
2023-05-03T18:18:09.468Z,17.70
2023-05-03T18:20:36.483Z,17.70
2023-05-03T18:23:03.828Z,17.60
2023-05-03T18:25:30.653Z,17.50
2023-05-03T18:27:57.798Z,17.50
2023-05-03T18:30:28.023Z,17.30
2023-05-03T18:32:55.912Z,17.30
2023-05-03T18:35:23.198Z,17.20
2023-05-03T18:37:50.127Z,17.10
2023-05-03T18:40:17.143Z,17.00
2023-05-03T18:42:44.162Z,16.80
2023-05-03T18:45:11.796Z,16.80
2023-05-03T18:47:38.692Z,16.80
2023-05-03T18:50:06.324Z,16.80
2023-05-03T18:52:33.402Z,16.70
2023-05-03T18:55:00.563Z,16.70
2023-05-03T18:57:27.355Z,16.50
2023-05-03T19:00:01.090Z,16.50
2023-05-03T19:02:31.142Z,16.40
2023-05-03T19:04:59.133Z,16.30
2023-05-03T19:07:26.070Z,16.30
2023-05-03T19:09:54.151Z,16.30
2023-05-03T19:12:20.994Z,16.10
2023-05-03T19:14:47.774Z,16.00
2023-05-03T19:17:14.586Z,16.00
2023-05-03T19:19:41.436Z,15.90
2023-05-03T19:22:08.213Z,15.90
2023-05-03T19:24:35.009Z,15.80
2023-05-03T19:27:02.282Z,15.70
2023-05-03T19:29:29.736Z,15.70
2023-05-03T19:31:56.546Z,15.70
2023-05-03T19:34:23.394Z,15.60
2023-05-03T19:36:50.340Z,15.60
2023-05-03T19:39:17.145Z,15.50
2023-05-03T19:41:44.173Z,15.50
2023-05-03T19:44:11.100Z,15.50
2023-05-03T19:46:38.011Z,15.50
2023-05-03T19:49:05.020Z,15.60
2023-05-03T19:51:32.845Z,15.50
2023-05-03T19:54:03.173Z,15.60
2023-05-03T19:56:30.154Z,15.40
2023-05-03T19:58:57.270Z,15.40
2023-05-03T20:01:24.178Z,15.30
2023-05-03T20:03:53.444Z,15.20
2023-05-03T20:06:20.724Z,15.20
2023-05-03T20:08:47.577Z,15.20
2023-05-03T20:11:14.486Z,15.10
2023-05-03T20:13:41.288Z,15.20
2023-05-03T20:16:08.556Z,15.20
2023-05-03T20:18:35.592Z,15.20
2023-05-03T20:21:03.769Z,15.10
2023-05-03T20:23:30.666Z,15.10
2023-05-03T20:25:57.632Z,15.10
2023-05-03T20:28:24.639Z,15.10
2023-05-03T20:30:51.704Z,15.10
2023-05-03T20:33:18.586Z,15.00
2023-05-03T20:35:45.499Z,15.00
2023-05-03T20:38:12.290Z,15.10
2023-05-03T20:40:39.197Z,15.10
2023-05-03T20:43:06.822Z,15.10
2023-05-03T20:45:33.744Z,15.00
2023-05-03T20:48:00.655Z,14.90
2023-05-03T20:50:27.487Z,14.90
2023-05-03T20:52:55.423Z,14.90
2023-05-03T20:55:22.679Z,14.80
2023-05-03T20:57:49.448Z,14.80
2023-05-03T21:00:16.407Z,14.80
2023-05-03T21:02:43.479Z,14.70
2023-05-03T21:05:11.396Z,14.70
2023-05-03T21:07:38.647Z,14.70
2023-05-03T21:10:07.141Z,14.70
2023-05-03T21:12:34.830Z,14.60
2023-05-03T21:15:01.978Z,14.60
2023-05-03T21:17:28.949Z,14.60
2023-05-03T21:19:55.861Z,14.50
2023-05-03T21:22:22.757Z,14.40
2023-05-03T21:24:50.170Z,14.40
2023-05-03T21:27:19.161Z,14.50
2023-05-03T21:29:46.335Z,14.50
2023-05-03T21:32:13.347Z,14.50
2023-05-03T21:34:40.188Z,14.30
2023-05-03T21:37:07.288Z,14.30
2023-05-03T21:39:34.426Z,14.20
2023-05-03T21:42:01.215Z,14.20
2023-05-03T21:44:28.059Z,14.30
2023-05-03T21:46:55.013Z,14.30
2023-05-03T21:49:22.165Z,14.30
2023-05-03T21:51:48.966Z,14.20
2023-05-03T21:54:17.187Z,14.20
2023-05-03T21:56:44.037Z,14.10
2023-05-03T21:59:10.889Z,14.20
2023-05-03T22:01:38.120Z,14.10
2023-05-03T22:04:05.662Z,14.00
2023-05-03T22:06:32.696Z,13.90
2023-05-03T22:08:59.837Z,14.00
2023-05-03T22:11:26.635Z,14.00
2023-05-03T22:14:06.796Z,14.00
2023-05-03T22:16:35.190Z,14.00
2023-05-03T22:19:02.097Z,14.00
2023-05-03T22:21:28.886Z,14.00
2023-05-03T22:23:55.714Z,13.90
2023-05-03T22:26:22.505Z,13.80
2023-05-03T22:28:49.439Z,13.90
2023-05-03T22:31:16.473Z,14.00
2023-05-03T22:33:44.996Z,13.90
2023-05-03T22:36:12.946Z,13.80
2023-05-03T22:38:42.622Z,13.70
2023-05-03T22:41:09.873Z,13.70
2023-05-03T22:43:37.045Z,13.70
2023-05-03T22:46:04.196Z,13.60
2023-05-03T22:48:32.501Z,13.70
2023-05-03T22:50:59.911Z,13.70
2023-05-03T22:53:26.845Z,13.60
2023-05-03T22:56:01.653Z,13.60
2023-05-03T22:58:28.919Z,13.50
2023-05-03T23:00:56.541Z,13.50
2023-05-03T23:03:23.525Z,13.50
2023-05-03T23:05:53.081Z,13.40
2023-05-03T23:08:20.835Z,13.40
2023-05-03T23:10:47.717Z,13.30
2023-05-03T23:13:14.657Z,13.30
2023-05-03T23:15:41.575Z,13.20
2023-05-03T23:18:08.646Z,13.10
2023-05-03T23:20:35.585Z,13.20
2023-05-03T23:23:02.446Z,13.20
2023-05-03T23:25:29.670Z,13.10
2023-05-03T23:27:56.715Z,13.10
2023-05-03T23:30:24.057Z,13.00
2023-05-03T23:32:51.504Z,13.00
2023-05-03T23:35:19.662Z,13.00
2023-05-03T23:37:46.524Z,13.10
2023-05-03T23:40:13.370Z,13.10
2023-05-03T23:42:41.387Z,13.20
2023-05-03T23:45:09.667Z,13.20
2023-05-03T23:47:37.033Z,13.10
2023-05-03T23:50:04.753Z,13.10
2023-05-03T23:52:31.919Z,13.10
2023-05-03T23:54:58.695Z,13.20
2023-05-03T23:57:25.820Z,13.10
2023-05-03T23:59:52.639Z,13.10
